Terminal Aerodrome Forecast
Issued by NWS

Home | Current Version | Previous Version | Text Only | Print | Product List | Glossary On
Versions: 1 2 3 4 5 6 7 8 9 10 11 12 13
000
FTUS45 KRIW 270500
TAFBPI
TAF
KBPI 270523Z 2706/2806 VRB05KT P6SM SCT250
     FM271900 VRB05KT P6SM SCT100 BKN250
     FM280000 VRB05KT P6SM VCSH SCT050 BKN070=

USA.gov is the U.S. government's official web portal to all federal, state and local government web resources and services.